Time;durP1;ratioP1;P1;durP2;ratioP2;P2;SDS_P1;SDS_P2;PMS_P1;PMS_P2;Temp;Humidity;BMP_temperature;BMP_pressure;BME280_temperature;BME280_humidity;BME280_pressure;Samples;Min_cycle;Max_cycle;Signal;HPM_P1;HPM_P2
2023/06/19 00:01:21;;;;;;;15.52;8.00;;;;;;;;;;5014429;28;20045;-66
2023/06/19 00:03:48;;;;;;;17.63;8.67;;;;;;;;;;5000663;28;20037;-66
2023/06/19 00:06:16;;;;;;;16.10;8.95;;;;;;;;;;5026109;28;20048;-65
2023/06/19 00:08:44;;;;;;;19.98;9.00;;;;;;;;;;5011241;28;20049;-65
2023/06/19 00:11:12;;;;;;;17.60;7.70;;;;;;;;;;5017868;28;20045;-65
2023/06/19 00:13:39;;;;;;;16.13;8.00;;;;;;;;;;5008197;28;20068;-65
2023/06/19 00:16:09;;;;;;;18.97;8.60;;;;;;;;;;5020174;28;20069;-65
2023/06/19 00:18:39;;;;;;;17.13;8.10;;;;;;;;;;5018973;28;20033;-65
2023/06/19 00:21:09;;;;;;;16.30;8.20;;;;;;;;;;5019645;28;20037;-65
2023/06/19 00:23:37;;;;;;;19.60;9.07;;;;;;;;;;5009080;28;20037;-66
2023/06/19 00:26:05;;;;;;;18.10;8.80;;;;;;;;;;5014589;28;20041;-66
2023/06/19 00:28:32;;;;;;;19.03;8.70;;;;;;;;;;5016917;28;20037;-66
2023/06/19 00:31:00;;;;;;;18.48;8.63;;;;;;;;;;5022523;28;20629;-65
2023/06/19 00:33:29;;;;;;;16.73;8.45;;;;;;;;;;5022244;28;20037;-65
2023/06/19 00:35:58;;;;;;;20.75;9.63;;;;;;;;;;5019223;28;20065;-65
2023/06/19 00:38:25;;;;;;;18.20;8.40;;;;;;;;;;5028821;28;20431;-65
2023/06/19 00:40:53;;;;;;;16.93;8.87;;;;;;;;;;5026350;28;20531;-62
2023/06/19 00:43:21;;;;;;;16.38;8.13;;;;;;;;;;5015394;28;20541;-66
2023/06/19 00:45:49;;;;;;;16.55;8.80;;;;;;;;;;5022069;28;21576;-66
2023/06/19 00:48:16;;;;;;;19.80;9.20;;;;;;;;;;5013748;28;20817;-66
2023/06/19 00:50:45;;;;;;;17.63;8.82;;;;;;;;;;5019077;28;20034;-66
2023/06/19 00:53:13;;;;;;;19.13;9.30;;;;;;;;;;5018695;28;20044;-66
2023/06/19 00:55:43;;;;;;;20.85;9.57;;;;;;;;;;5021714;28;20048;-66
2023/06/19 00:58:12;;;;;;;18.63;8.43;;;;;;;;;;5008295;28;20120;-66
2023/06/19 01:00:40;;;;;;;18.30;9.00;;;;;;;;;;5018348;28;20060;-67
2023/06/19 01:03:12;;;;;;;19.23;8.82;;;;;;;;;;5006850;28;20064;-66
2023/06/19 01:05:43;;;;;;;23.53;9.77;;;;;;;;;;5012908;28;20048;-67
2023/06/19 01:08:13;;;;;;;19.85;9.10;;;;;;;;;;5005176;28;20052;-66
2023/06/19 01:10:44;;;;;;;23.70;9.57;;;;;;;;;;5021319;28;20037;-66
2023/06/19 01:13:15;;;;;;;18.55;8.80;;;;;;;;;;5028105;28;20072;-68
2023/06/19 01:15:43;;;;;;;16.40;8.60;;;;;;;;;;5020326;28;21534;-66
2023/06/19 01:18:12;;;;;;;19.30;8.97;;;;;;;;;;5024491;28;20041;-66
2023/06/19 01:20:40;;;;;;;18.30;8.10;;;;;;;;;;5010048;28;20355;-65
2023/06/19 01:23:10;;;;;;;19.17;9.20;;;;;;;;;;5017513;28;20132;-66
2023/06/19 01:25:39;;;;;;;19.65;9.05;;;;;;;;;;5019857;28;20076;-67
2023/06/19 01:28:09;;;;;;;23.38;9.50;;;;;;;;;;5009331;28;20033;-66
2023/06/19 01:30:37;;;;;;;22.40;8.40;;;;;;;;;;5028215;28;20057;-66
2023/06/19 01:33:16;;;;;;;19.70;8.77;;;;;;;;;;5017465;28;20049;-66
2023/06/19 01:35:46;;;;;;;17.23;8.35;;;;;;;;;;4999982;28;20060;-66
2023/06/19 01:38:15;;;;;;;19.63;8.57;;;;;;;;;;5020759;28;20032;-63
2023/06/19 01:40:43;;;;;;;21.02;9.02;;;;;;;;;;5015677;28;20054;-65
2023/06/19 01:43:11;;;;;;;19.63;9.00;;;;;;;;;;5006758;28;20048;-65
2023/06/19 01:45:39;;;;;;;18.52;9.20;;;;;;;;;;5026202;28;20045;-65
2023/06/19 01:48:07;;;;;;;18.25;9.18;;;;;;;;;;5012614;28;20041;-65
2023/06/19 01:50:35;;;;;;;20.02;9.90;;;;;;;;;;5028171;28;20041;-66
2023/06/19 01:53:03;;;;;;;19.65;8.95;;;;;;;;;;5020263;28;20041;-65
2023/06/19 01:55:32;;;;;;;19.97;9.13;;;;;;;;;;5019026;28;20056;-66
2023/06/19 01:58:00;;;;;;;16.98;8.32;;;;;;;;;;5023615;28;20491;-66
2023/06/19 02:00:28;;;;;;;20.88;9.13;;;;;;;;;;5018178;28;20049;-66
2023/06/19 02:02:55;;;;;;;18.10;8.77;;;;;;;;;;5011535;28;20037;-65
2023/06/19 02:05:23;;;;;;;20.60;8.93;;;;;;;;;;5006539;28;20052;-65
2023/06/19 02:07:51;;;;;;;19.87;8.60;;;;;;;;;;5031288;28;20041;-66
2023/06/19 02:10:19;;;;;;;19.35;9.48;;;;;;;;;;5013651;28;20037;-65
2023/06/19 02:12:48;;;;;;;19.55;9.07;;;;;;;;;;5015916;28;20410;-65
2023/06/19 02:15:16;;;;;;;21.08;8.57;;;;;;;;;;4997837;28;20033;-65
2023/06/19 02:17:44;;;;;;;23.17;8.98;;;;;;;;;;5010027;28;20041;-66
2023/06/19 02:20:12;;;;;;;21.17;9.13;;;;;;;;;;5015220;28;20045;-68
2023/06/19 02:22:41;;;;;;;23.65;9.50;;;;;;;;;;5011000;28;20048;-68
2023/06/19 02:25:09;;;;;;;16.90;8.45;;;;;;;;;;5017227;28;20040;-68
2023/06/19 02:27:36;;;;;;;22.50;9.35;;;;;;;;;;5011354;28;20041;-69
2023/06/19 02:30:06;;;;;;;19.85;7.93;;;;;;;;;;5018636;28;20048;-69
2023/06/19 02:32:34;;;;;;;17.77;8.53;;;;;;;;;;5023894;28;20032;-70
2023/06/19 02:35:03;;;;;;;19.05;8.32;;;;;;;;;;5030314;28;20045;-69
2023/06/19 02:37:31;;;;;;;22.10;9.15;;;;;;;;;;5011389;28;20043;-69
2023/06/19 02:39:58;;;;;;;19.15;8.50;;;;;;;;;;5030935;28;20067;-69
2023/06/19 02:42:26;;;;;;;16.63;8.65;;;;;;;;;;5018435;28;20048;-69
2023/06/19 02:44:54;;;;;;;18.40;8.63;;;;;;;;;;5016544;28;20408;-67
2023/06/19 02:47:23;;;;;;;20.27;9.02;;;;;;;;;;5004202;28;20513;-68
2023/06/19 02:49:51;;;;;;;20.33;8.85;;;;;;;;;;5019726;28;20079;-68
2023/06/19 02:52:19;;;;;;;19.50;8.80;;;;;;;;;;5025219;28;20044;-68
2023/06/19 02:54:47;;;;;;;21.17;9.38;;;;;;;;;;4980204;28;20051;-68
2023/06/19 02:57:14;;;;;;;21.43;9.60;;;;;;;;;;5018173;28;20044;-69
2023/06/19 02:59:42;;;;;;;20.30;9.13;;;;;;;;;;5016948;28;20059;-68
2023/06/19 03:02:10;;;;;;;19.98;9.70;;;;;;;;;;5020617;28;20045;-68
2023/06/19 03:04:40;;;;;;;20.08;9.20;;;;;;;;;;4985655;28;20426;-68
2023/06/19 03:07:08;;;;;;;20.17;8.13;;;;;;;;;;5011619;28;20044;-68
2023/06/19 03:09:35;;;;;;;20.13;9.50;;;;;;;;;;5021870;28;20495;-68
2023/06/19 03:12:03;;;;;;;21.45;8.85;;;;;;;;;;5015358;28;20041;-68
2023/06/19 03:14:31;;;;;;;21.13;9.63;;;;;;;;;;5019545;28;20064;-67
2023/06/19 03:16:59;;;;;;;18.73;9.18;;;;;;;;;;5010909;28;20052;-68
2023/06/19 03:19:26;;;;;;;22.17;9.15;;;;;;;;;;5025432;28;20036;-67
2023/06/19 03:21:55;;;;;;;21.40;8.63;;;;;;;;;;4990123;28;20048;-67
2023/06/19 03:24:23;;;;;;;20.00;8.85;;;;;;;;;;5024842;28;20423;-68
2023/06/19 03:26:53;;;;;;;23.23;9.88;;;;;;;;;;5022079;28;20239;-68
2023/06/19 03:29:22;;;;;;;17.33;8.68;;;;;;;;;;5023459;28;20478;-66
2023/06/19 03:31:51;;;;;;;19.63;9.00;;;;;;;;;;5017594;28;20041;-68
2023/06/19 03:34:18;;;;;;;18.30;8.77;;;;;;;;;;5024365;28;20041;-69
2023/06/19 03:36:46;;;;;;;20.08;9.68;;;;;;;;;;5000960;28;20051;-68
2023/06/19 03:39:15;;;;;;;22.23;8.88;;;;;;;;;;5022322;28;20414;-68
2023/06/19 03:41:43;;;;;;;18.77;9.18;;;;;;;;;;5019768;28;20076;-68
2023/06/19 03:44:11;;;;;;;18.90;8.80;;;;;;;;;;5013974;28;20044;-67
2023/06/19 03:46:39;;;;;;;17.40;8.50;;;;;;;;;;5024596;28;20124;-68
2023/06/19 03:49:09;;;;;;;18.70;9.35;;;;;;;;;;5015313;28;20128;-68
2023/06/19 03:51:37;;;;;;;19.67;9.50;;;;;;;;;;5021161;28;20051;-67
2023/06/19 03:54:05;;;;;;;22.50;9.20;;;;;;;;;;5011895;28;20509;-68
2023/06/19 03:56:34;;;;;;;22.38;9.32;;;;;;;;;;5026414;28;20063;-68
2023/06/19 03:59:02;;;;;;;21.40;9.37;;;;;;;;;;5014364;28;20049;-68
2023/06/19 04:01:29;;;;;;;22.98;8.25;;;;;;;;;;5028873;28;20048;-68
2023/06/19 04:03:57;;;;;;;18.63;8.60;;;;;;;;;;5011615;28;20033;-67
2023/06/19 04:06:28;;;;;;;23.40;9.27;;;;;;;;;;5015905;28;20049;-68
2023/06/19 04:08:55;;;;;;;22.67;8.95;;;;;;;;;;5014093;28;20123;-67
2023/06/19 04:11:23;;;;;;;20.53;9.10;;;;;;;;;;5011824;28;20048;-67
2023/06/19 04:13:52;;;;;;;20.08;9.25;;;;;;;;;;5013604;28;20045;-67
2023/06/19 04:16:23;;;;;;;17.70;8.48;;;;;;;;;;5027981;28;20044;-67
2023/06/19 04:18:52;;;;;;;20.40;9.43;;;;;;;;;;5023827;28;20041;-67
2023/06/19 04:21:20;;;;;;;19.10;9.32;;;;;;;;;;5016021;28;20047;-67
2023/06/19 04:23:47;;;;;;;19.77;8.87;;;;;;;;;;5017030;28;20059;-66
2023/06/19 04:26:15;;;;;;;18.23;8.60;;;;;;;;;;5024088;28;20048;-66
2023/06/19 04:28:43;;;;;;;20.73;8.68;;;;;;;;;;5009303;28;20053;-67
2023/06/19 04:31:12;;;;;;;21.67;9.30;;;;;;;;;;5017113;28;20041;-67
2023/06/19 04:33:41;;;;;;;21.25;8.80;;;;;;;;;;5027848;28;20033;-66
2023/06/19 04:36:09;;;;;;;23.50;9.57;;;;;;;;;;5007002;28;20037;-67
2023/06/19 04:38:37;;;;;;;19.52;8.25;;;;;;;;;;5023424;28;20053;-67
2023/06/19 04:41:05;;;;;;;21.75;9.90;;;;;;;;;;5003086;28;20045;-67
2023/06/19 04:43:33;;;;;;;20.17;10.00;;;;;;;;;;5021233;28;20049;-67
2023/06/19 04:46:03;;;;;;;21.08;9.77;;;;;;;;;;5014811;28;20399;-67
2023/06/19 04:48:35;;;;;;;21.00;10.03;;;;;;;;;;5026014;28;20411;-67
2023/06/19 04:51:06;;;;;;;21.85;9.32;;;;;;;;;;5009146;28;20029;-68
2023/06/19 04:53:34;;;;;;;20.17;10.38;;;;;;;;;;5012885;28;20362;-64
2023/06/19 04:56:01;;;;;;;22.15;10.20;;;;;;;;;;5038707;28;20803;-67
2023/06/19 04:58:29;;;;;;;19.73;10.20;;;;;;;;;;5011426;28;20052;-66
2023/06/19 05:00:57;;;;;;;26.00;11.23;;;;;;;;;;5018207;28;20045;-68
2023/06/19 05:03:25;;;;;;;25.42;10.45;;;;;;;;;;5003594;28;20247;-66
2023/06/19 05:05:54;;;;;;;27.50;12.43;;;;;;;;;;5025687;28;20045;-66
2023/06/19 05:08:22;;;;;;;27.95;11.80;;;;;;;;;;5005911;28;20239;-66
2023/06/19 05:10:50;;;;;;;26.55;10.90;;;;;;;;;;5025726;28;20041;-66
2023/06/19 05:13:18;;;;;;;26.97;12.17;;;;;;;;;;5015145;28;20506;-67
2023/06/19 05:15:46;;;;;;;23.75;10.73;;;;;;;;;;5015141;28;20340;-66
2023/06/19 05:18:14;;;;;;;27.08;12.20;;;;;;;;;;5009027;28;20037;-62
2023/06/19 05:20:41;;;;;;;26.40;11.18;;;;;;;;;;5025946;28;20040;-66
2023/06/19 05:23:11;;;;;;;26.70;11.00;;;;;;;;;;5004885;28;20473;-66
2023/06/19 05:25:38;;;;;;;23.77;10.50;;;;;;;;;;5024107;28;20507;-67
2023/06/19 05:28:06;;;;;;;21.63;10.63;;;;;;;;;;5028963;28;20132;-67
2023/06/19 05:30:34;;;;;;;26.52;10.77;;;;;;;;;;5006460;28;20438;-63
2023/06/19 05:33:04;;;;;;;21.27;9.70;;;;;;;;;;5011506;28;20056;-66
2023/06/19 05:35:31;;;;;;;23.10;10.18;;;;;;;;;;5025405;28;20075;-66
2023/06/19 05:37:59;;;;;;;22.90;10.50;;;;;;;;;;5017148;28;20037;-66
2023/06/19 05:40:29;;;;;;;22.48;10.30;;;;;;;;;;5012037;28;20075;-66
2023/06/19 05:42:56;;;;;;;20.77;10.50;;;;;;;;;;5017612;28;20052;-65
2023/06/19 05:45:24;;;;;;;25.42;10.55;;;;;;;;;;5016447;28;21202;-65
2023/06/19 05:47:52;;;;;;;20.95;10.00;;;;;;;;;;5029618;28;20025;-66
2023/06/19 05:50:20;;;;;;;27.43;10.57;;;;;;;;;;5018317;28;20491;-66
2023/06/19 05:52:48;;;;;;;23.63;10.48;;;;;;;;;;5026109;28;20041;-66
2023/06/19 05:55:16;;;;;;;22.23;10.38;;;;;;;;;;5013679;28;20035;-67
2023/06/19 05:57:45;;;;;;;25.50;10.30;;;;;;;;;;5026063;28;20049;-66
2023/06/19 06:00:14;;;;;;;20.42;9.93;;;;;;;;;;5018891;28;20041;-65
2023/06/19 06:02:42;;;;;;;25.13;11.40;;;;;;;;;;5026270;28;20115;-66
2023/06/19 06:05:11;;;;;;;26.48;11.43;;;;;;;;;;5017755;28;20464;-65
2023/06/19 06:07:39;;;;;;;25.08;10.05;;;;;;;;;;5016546;28;20041;-65
2023/06/19 06:10:08;;;;;;;26.48;11.55;;;;;;;;;;5012932;28;20091;-66
2023/06/19 06:12:36;;;;;;;26.85;12.02;;;;;;;;;;5016393;28;20044;-66
2023/06/19 06:15:06;;;;;;;26.23;11.57;;;;;;;;;;5006436;28;20785;-67
2023/06/19 06:17:34;;;;;;;23.55;10.60;;;;;;;;;;5031715;28;20064;-63
2023/06/19 06:20:06;;;;;;;23.70;10.65;;;;;;;;;;4992468;28;20044;-67
2023/06/19 06:22:34;;;;;;;24.75;11.43;;;;;;;;;;5016697;28;20041;-60
2023/06/19 06:25:02;;;;;;;24.95;11.50;;;;;;;;;;5014708;28;20041;-67
2023/06/19 06:27:29;;;;;;;24.80;9.83;;;;;;;;;;5019815;28;20045;-67
2023/06/19 06:29:57;;;;;;;25.67;10.52;;;;;;;;;;5026659;28;20037;-67
2023/06/19 06:32:28;;;;;;;23.25;11.02;;;;;;;;;;5017891;28;20514;-66
2023/06/19 06:34:57;;;;;;;23.60;10.98;;;;;;;;;;5014518;28;20044;-66
2023/06/19 06:37:25;;;;;;;26.55;10.98;;;;;;;;;;5008132;28;20041;-66
2023/06/19 06:39:53;;;;;;;27.07;12.00;;;;;;;;;;5022165;28;20037;-66
2023/06/19 06:42:20;;;;;;;25.90;11.77;;;;;;;;;;5001183;28;20052;-67
2023/06/19 06:44:48;;;;;;;31.42;11.43;;;;;;;;;;5015505;28;20040;-66
2023/06/19 06:47:16;;;;;;;29.83;11.27;;;;;;;;;;5012907;28;20045;-65
2023/06/19 06:49:45;;;;;;;24.67;10.65;;;;;;;;;;5021984;28;20041;-66
2023/06/19 06:52:13;;;;;;;25.27;11.23;;;;;;;;;;4993708;28;20236;-65
2023/06/19 06:54:40;;;;;;;25.58;12.00;;;;;;;;;;5017320;28;20044;-65
2023/06/19 06:57:08;;;;;;;25.27;11.68;;;;;;;;;;5007059;28;20044;-64
2023/06/19 06:59:36;;;;;;;25.92;11.50;;;;;;;;;;5021044;28;20063;-64
2023/06/19 07:02:04;;;;;;;23.85;10.13;;;;;;;;;;5012543;28;20040;-65
2023/06/19 07:04:32;;;;;;;20.03;9.00;;;;;;;;;;5025263;28;20578;-65
2023/06/19 07:07:06;;;;;;;17.95;9.20;;;;;;;;;;5020768;28;20128;-67
2023/06/19 07:09:34;;;;;;;23.20;9.95;;;;;;;;;;5003456;28;20052;-66
2023/06/19 07:12:04;;;;;;;23.98;9.88;;;;;;;;;;5010013;28;20045;-67
2023/06/19 07:14:32;;;;;;;23.00;9.63;;;;;;;;;;5021250;28;20045;-67
2023/06/19 07:17:00;;;;;;;19.93;9.27;;;;;;;;;;5015802;28;20129;-67
2023/06/19 07:19:29;;;;;;;18.75;8.95;;;;;;;;;;5012114;28;20037;-67
2023/06/19 07:21:57;;;;;;;20.13;8.85;;;;;;;;;;5020533;28;20471;-65
2023/06/19 07:24:26;;;;;;;18.70;9.20;;;;;;;;;;5016110;28;20045;-65
2023/06/19 07:26:54;;;;;;;13.55;6.95;;;;;;;;;;5002674;28;20615;-63
2023/06/19 07:29:22;;;;;;;21.37;8.83;;;;;;;;;;5011936;28;20314;-64
2023/06/19 07:31:50;;;;;;;23.02;8.85;;;;;;;;;;5020587;28;20037;-63
2023/06/19 07:34:18;;;;;;;24.73;9.55;;;;;;;;;;5003883;28;20037;-63
2023/06/19 07:36:45;;;;;;;16.88;7.70;;;;;;;;;;5019363;28;20060;-63
2023/06/19 07:39:13;;;;;;;18.48;8.27;;;;;;;;;;5009820;28;20794;-63
2023/06/19 07:41:42;;;;;;;21.13;9.33;;;;;;;;;;5025778;28;20063;-63
2023/06/19 07:44:10;;;;;;;18.73;8.10;;;;;;;;;;4999598;28;20045;-64
2023/06/19 07:46:38;;;;;;;18.63;8.70;;;;;;;;;;5015439;28;20033;-63
2023/06/19 07:49:09;;;;;;;16.42;8.15;;;;;;;;;;5028638;28;20415;-63
2023/06/19 07:51:37;;;;;;;17.73;8.27;;;;;;;;;;5002337;28;20037;-63
2023/06/19 07:54:04;;;;;;;19.77;7.90;;;;;;;;;;5019258;28;20410;-63
2023/06/19 07:56:33;;;;;;;16.42;7.22;;;;;;;;;;5013263;28;20037;-61
2023/06/19 07:59:03;;;;;;;17.63;7.15;;;;;;;;;;5027286;28;20049;-62
2023/06/19 08:01:33;;;;;;;12.85;6.60;;;;;;;;;;5011336;28;20644;-62
2023/06/19 08:04:01;;;;;;;12.73;7.00;;;;;;;;;;5026823;28;20496;-63
2023/06/19 08:06:29;;;;;;;12.47;5.40;;;;;;;;;;4998809;28;20045;-64
2023/06/19 08:08:57;;;;;;;13.40;5.68;;;;;;;;;;5024101;28;20068;-63
2023/06/19 08:11:24;;;;;;;13.55;6.28;;;;;;;;;;5016303;28;20037;-63
2023/06/19 08:13:52;;;;;;;13.88;6.32;;;;;;;;;;5014609;28;20029;-63
2023/06/19 08:16:25;;;;;;;13.43;6.10;;;;;;;;;;5015828;28;20033;-64
2023/06/19 08:18:53;;;;;;;15.27;6.83;;;;;;;;;;5019952;28;20131;-63
2023/06/19 08:21:21;;;;;;;11.52;5.50;;;;;;;;;;4996155;28;20416;-64
2023/06/19 08:23:49;;;;;;;17.83;6.07;;;;;;;;;;4998957;28;20048;-63
2023/06/19 08:26:17;;;;;;;11.63;5.55;;;;;;;;;;4997440;28;20518;-63
2023/06/19 08:28:45;;;;;;;10.32;5.32;;;;;;;;;;5006281;28;20404;-63
2023/06/19 08:31:13;;;;;;;11.30;4.60;;;;;;;;;;4992716;28;21254;-64
2023/06/19 08:33:43;;;;;;;13.43;5.60;;;;;;;;;;5023835;28;20136;-64
2023/06/19 08:36:10;;;;;;;16.30;5.35;;;;;;;;;;5002623;28;20044;-64
2023/06/19 08:38:38;;;;;;;15.73;5.43;;;;;;;;;;5018372;28;20068;-64
2023/06/19 08:41:06;;;;;;;14.57;5.60;;;;;;;;;;5005504;28;20045;-64
2023/06/19 08:43:34;;;;;;;14.63;4.70;;;;;;;;;;5031963;28;20048;-57
2023/06/19 08:46:07;;;;;;;9.57;4.45;;;;;;;;;;5010716;28;20044;-64
2023/06/19 08:48:35;;;;;;;12.88;4.85;;;;;;;;;;5012666;28;20072;-64
2023/06/19 08:51:05;;;;;;;13.57;4.85;;;;;;;;;;5026340;28;20045;-65
2023/06/19 08:53:34;;;;;;;11.18;5.43;;;;;;;;;;5016948;28;20052;-64
2023/06/19 08:56:02;;;;;;;12.10;5.93;;;;;;;;;;5028840;28;20045;-64
2023/06/19 08:58:30;;;;;;;13.27;5.18;;;;;;;;;;5024944;28;20044;-67
2023/06/19 09:00:58;;;;;;;10.30;4.85;;;;;;;;;;5029791;28;20517;-67
2023/06/19 09:03:26;;;;;;;10.52;4.15;;;;;;;;;;5002915;28;20045;-66
2023/06/19 09:05:54;;;;;;;11.30;4.43;;;;;;;;;;5021746;28;20040;-65
2023/06/19 09:08:23;;;;;;;10.87;5.37;;;;;;;;;;5009927;28;20030;-66
2023/06/19 09:10:56;;;;;;;10.60;4.22;;;;;;;;;;5025898;28;20094;-67
2023/06/19 09:13:23;;;;;;;9.40;4.40;;;;;;;;;;5027931;28;20136;-64
2023/06/19 09:15:58;;;;;;;9.05;4.05;;;;;;;;;;5029484;28;20033;-65
2023/06/19 09:18:27;;;;;;;8.93;3.65;;;;;;;;;;5014767;28;20053;-65
2023/06/19 09:20:55;;;;;;;11.33;4.13;;;;;;;;;;5024178;28;20069;-65
2023/06/19 09:23:24;;;;;;;10.13;4.80;;;;;;;;;;5018877;28;20079;-65
2023/06/19 09:25:53;;;;;;;10.25;4.30;;;;;;;;;;5024935;28;20144;-65
2023/06/19 09:28:21;;;;;;;11.68;4.88;;;;;;;;;;5021271;28;20047;-66
2023/06/19 09:30:55;;;;;;;10.82;4.57;;;;;;;;;;5024738;28;20041;-65
2023/06/19 09:33:23;;;;;;;11.43;4.80;;;;;;;;;;5021378;28;20333;-65
2023/06/19 09:35:51;;;;;;;13.52;4.97;;;;;;;;;;5018692;28;20045;-65
2023/06/19 09:38:19;;;;;;;9.23;4.30;;;;;;;;;;5018478;28;22033;-65
2023/06/19 09:40:49;;;;;;;9.40;3.95;;;;;;;;;;5017017;28;20502;-65
2023/06/19 09:43:19;;;;;;;10.80;4.15;;;;;;;;;;5025896;28;20033;-66
2023/06/19 09:45:49;;;;;;;11.47;4.67;;;;;;;;;;5007406;28;20044;-65
2023/06/19 09:48:20;;;;;;;11.95;4.82;;;;;;;;;;5024661;28;20044;-66
2023/06/19 09:50:51;;;;;;;9.95;4.55;;;;;;;;;;5028470;28;20047;-65
2023/06/19 09:53:20;;;;;;;11.52;4.47;;;;;;;;;;5025390;28;20103;-65
2023/06/19 09:55:51;;;;;;;9.57;4.03;;;;;;;;;;5029690;28;20044;-65
2023/06/19 09:58:19;;;;;;;9.20;3.70;;;;;;;;;;5018953;28;20061;-65
2023/06/19 10:00:49;;;;;;;9.70;4.70;;;;;;;;;;5031197;28;20609;-65
2023/06/19 10:03:17;;;;;;;9.15;4.03;;;;;;;;;;5010964;28;20566;-65
2023/06/19 10:05:46;;;;;;;8.88;4.03;;;;;;;;;;5026847;28;20044;-65
2023/06/19 10:08:31;;;;;;;11.13;4.15;;;;;;;;;;5017064;28;20041;-66
2023/06/19 10:11:00;;;;;;;9.80;4.37;;;;;;;;;;5034066;28;20041;-66
2023/06/19 10:13:32;;;;;;;10.45;4.05;;;;;;;;;;5014530;28;20844;-66
2023/06/19 10:16:00;;;;;;;8.27;3.97;;;;;;;;;;5026648;28;20045;-66
2023/06/19 10:18:29;;;;;;;7.55;3.90;;;;;;;;;;5022186;28;20579;-66
2023/06/19 10:20:57;;;;;;;9.07;4.35;;;;;;;;;;5025793;28;20037;-66
2023/06/19 10:23:28;;;;;;;8.00;3.73;;;;;;;;;;5013546;28;20044;-65
2023/06/19 10:25:56;;;;;;;9.05;3.90;;;;;;;;;;5018984;28;20051;-65
2023/06/19 10:28:26;;;;;;;6.50;2.70;;;;;;;;;;5022634;28;20132;-66
2023/06/19 10:30:56;;;;;;;9.38;3.67;;;;;;;;;;5024397;28;20431;-66
2023/06/19 10:33:25;;;;;;;9.85;3.60;;;;;;;;;;5025153;28;20033;-67
2023/06/19 10:35:52;;;;;;;8.23;3.53;;;;;;;;;;5019094;28;20075;-66
2023/06/19 10:38:20;;;;;;;9.13;3.97;;;;;;;;;;5023968;28;20054;-66
2023/06/19 10:40:48;;;;;;;10.80;3.58;;;;;;;;;;5020929;28;20057;-66
2023/06/19 10:43:21;;;;;;;9.68;3.45;;;;;;;;;;5026550;28;20041;-66
2023/06/19 10:45:50;;;;;;;7.93;3.70;;;;;;;;;;5013482;28;20471;-67
2023/06/19 10:48:22;;;;;;;8.70;3.03;;;;;;;;;;5019793;28;20086;-67
2023/06/19 10:50:50;;;;;;;7.75;3.13;;;;;;;;;;5027963;28;20044;-65
2023/06/19 10:53:25;;;;;;;8.13;3.13;;;;;;;;;;5023469;28;20250;-68
2023/06/19 10:55:57;;;;;;;8.05;3.15;;;;;;;;;;5026788;28;20136;-67
2023/06/19 10:58:24;;;;;;;8.90;3.45;;;;;;;;;;5013929;28;20644;-68
2023/06/19 11:00:54;;;;;;;8.47;3.33;;;;;;;;;;5011499;28;20120;-67
2023/06/19 11:03:22;;;;;;;10.90;2.50;;;;;;;;;;5009495;28;20486;-70
2023/06/19 11:05:50;;;;;;;8.05;2.72;;;;;;;;;;4987329;28;20053;-69
2023/06/19 11:08:18;;;;;;;7.93;2.92;;;;;;;;;;5000181;28;20091;-69
2023/06/19 11:10:46;;;;;;;7.53;2.85;;;;;;;;;;4998973;28;20048;-69
2023/06/19 11:13:14;;;;;;;5.87;2.60;;;;;;;;;;4997350;28;20535;-68
2023/06/19 11:15:42;;;;;;;8.52;3.10;;;;;;;;;;5007993;28;20048;-68
2023/06/19 11:18:12;;;;;;;7.70;2.97;;;;;;;;;;5005354;28;20116;-68
2023/06/19 11:20:47;;;;;;;8.13;3.22;;;;;;;;;;4999704;28;20063;-68
2023/06/19 11:23:15;;;;;;;10.00;3.15;;;;;;;;;;5000396;28;20047;-68
2023/06/19 11:25:43;;;;;;;8.57;3.43;;;;;;;;;;5003056;28;20055;-68
2023/06/19 11:28:14;;;;;;;8.80;3.38;;;;;;;;;;5004657;28;20048;-69
2023/06/19 11:30:43;;;;;;;9.68;3.58;;;;;;;;;;5012115;28;21459;-68
2023/06/19 11:33:23;;;;;;;8.32;3.67;;;;;;;;;;4997863;28;20040;-67
2023/06/19 11:35:54;;;;;;;9.57;3.50;;;;;;;;;;5005647;28;20176;-60
2023/06/19 11:38:26;;;;;;;9.13;3.60;;;;;;;;;;4997561;28;20037;-67
2023/06/19 11:40:55;;;;;;;9.57;3.67;;;;;;;;;;4986947;28;20056;-67
2023/06/19 11:43:27;;;;;;;10.23;3.53;;;;;;;;;;4998854;28;20408;-67
2023/06/19 11:45:55;;;;;;;8.13;2.90;;;;;;;;;;5005718;28;20075;-66
2023/06/19 11:48:25;;;;;;;7.35;2.92;;;;;;;;;;4994975;28;20514;-67
2023/06/19 11:50:53;;;;;;;9.67;2.90;;;;;;;;;;4997129;28;20043;-67
2023/06/19 11:53:21;;;;;;;5.38;2.28;;;;;;;;;;4994545;28;20047;-67
2023/06/19 11:55:49;;;;;;;7.13;2.90;;;;;;;;;;5014221;28;20518;-67
2023/06/19 11:58:18;;;;;;;6.00;2.67;;;;;;;;;;4996840;28;20578;-67
2023/06/19 12:00:45;;;;;;;7.40;2.00;;;;;;;;;;4997578;28;20053;-67
2023/06/19 12:03:13;;;;;;;8.00;2.70;;;;;;;;;;4993571;28;20037;-69
2023/06/19 12:05:43;;;;;;;7.78;2.25;;;;;;;;;;5005310;28;20041;-69
2023/06/19 12:08:11;;;;;;;8.02;2.35;;;;;;;;;;4991745;28;20051;-68
2023/06/19 12:10:42;;;;;;;8.40;2.47;;;;;;;;;;4999543;28;20052;-71
2023/06/19 12:13:12;;;;;;;5.88;2.50;;;;;;;;;;4995201;28;20233;-71
2023/06/19 12:15:40;;;;;;;8.17;2.80;;;;;;;;;;5000901;28;20047;-70
2023/06/19 12:18:08;;;;;;;6.70;2.53;;;;;;;;;;4998574;28;20601;-69
2023/06/19 12:20:35;;;;;;;6.28;2.50;;;;;;;;;;5012643;28;20067;-68
2023/06/19 12:23:04;;;;;;;10.55;2.47;;;;;;;;;;4994938;28;20491;-68
2023/06/19 12:25:32;;;;;;;9.82;2.80;;;;;;;;;;5005184;28;20055;-69
2023/06/19 12:28:00;;;;;;;6.67;2.33;;;;;;;;;;5006814;28;20036;-67
2023/06/19 12:30:28;;;;;;;6.97;2.60;;;;;;;;;;5005555;28;20064;-67
2023/06/19 12:32:56;;;;;;;9.65;2.40;;;;;;;;;;4987798;28;20730;-69
2023/06/19 12:35:25;;;;;;;6.35;2.38;;;;;;;;;;5008635;28;20045;-68
2023/06/19 12:37:54;;;;;;;7.72;2.80;;;;;;;;;;4997664;28;20041;-68
2023/06/19 12:40:23;;;;;;;7.13;2.67;;;;;;;;;;5005953;28;20063;-69
2023/06/19 12:42:52;;;;;;;6.72;2.65;;;;;;;;;;4996672;28;20045;-68
2023/06/19 12:45:19;;;;;;;8.18;2.45;;;;;;;;;;5011988;28;20495;-67
2023/06/19 12:47:48;;;;;;;6.82;2.67;;;;;;;;;;5004778;28;20041;-68
2023/06/19 12:50:19;;;;;;;5.70;2.17;;;;;;;;;;5008502;28;20102;-68
2023/06/19 12:52:46;;;;;;;6.50;2.13;;;;;;;;;;5001257;28;20499;-69
2023/06/19 12:55:14;;;;;;;7.28;2.30;;;;;;;;;;5000414;28;20051;-67
2023/06/19 12:57:44;;;;;;;9.95;2.35;;;;;;;;;;5006454;28;20052;-69
2023/06/19 13:00:13;;;;;;;7.53;2.83;;;;;;;;;;5009050;28;20131;-70
2023/06/19 13:02:42;;;;;;;8.75;2.22;;;;;;;;;;4996084;28;20040;-69
2023/06/19 13:05:10;;;;;;;8.47;2.37;;;;;;;;;;5001023;28;20041;-69
2023/06/19 13:07:38;;;;;;;6.68;2.42;;;;;;;;;;5015571;28;20088;-70
2023/06/19 13:10:06;;;;;;;8.63;2.58;;;;;;;;;;5003406;28;20059;-70
2023/06/19 13:12:34;;;;;;;9.05;2.55;;;;;;;;;;5001394;28;20068;-66
2023/06/19 13:15:04;;;;;;;7.85;2.60;;;;;;;;;;4994797;28;20742;-69
2023/06/19 13:17:32;;;;;;;6.50;2.03;;;;;;;;;;5015124;28;20033;-68
2023/06/19 13:20:00;;;;;;;6.50;1.95;;;;;;;;;;5000162;28;20346;-68
2023/06/19 13:22:28;;;;;;;7.95;2.08;;;;;;;;;;5006103;28;20931;-69
2023/06/19 13:24:58;;;;;;;7.57;2.30;;;;;;;;;;5003721;28;20499;-69
2023/06/19 13:27:28;;;;;;;5.68;1.88;;;;;;;;;;5004024;28;20400;-68
2023/06/19 13:29:56;;;;;;;6.50;2.23;;;;;;;;;;5006904;28;20068;-68
2023/06/19 13:32:25;;;;;;;6.03;1.98;;;;;;;;;;5001283;28;20060;-68
2023/06/19 13:34:53;;;;;;;6.18;1.77;;;;;;;;;;5001778;28;20033;-69
2023/06/19 13:37:23;;;;;;;6.90;1.75;;;;;;;;;;5006357;28;20072;-68
2023/06/19 13:39:51;;;;;;;4.57;1.83;;;;;;;;;;5012533;28;20037;-68
2023/06/19 13:42:18;;;;;;;7.00;2.23;;;;;;;;;;5005462;28;20056;-69
2023/06/19 13:44:46;;;;;;;5.43;2.13;;;;;;;;;;5014706;28;20040;-69
2023/06/19 13:47:18;;;;;;;8.20;1.98;;;;;;;;;;5017523;28;20072;-69
2023/06/19 13:49:47;;;;;;;5.90;2.10;;;;;;;;;;5016853;28;20115;-69
2023/06/19 13:52:15;;;;;;;6.07;2.20;;;;;;;;;;5014500;28;20059;-70
2023/06/19 13:54:43;;;;;;;7.30;2.30;;;;;;;;;;5006873;28;20077;-71
2023/06/19 13:57:10;;;;;;;5.28;1.70;;;;;;;;;;5023511;28;20037;-71
2023/06/19 13:59:38;;;;;;;7.60;1.90;;;;;;;;;;5024782;28;20663;-71
2023/06/19 14:02:06;;;;;;;5.60;1.80;;;;;;;;;;5022526;28;20491;-70
2023/06/19 14:04:34;;;;;;;5.20;1.67;;;;;;;;;;5019830;28;20127;-69
2023/06/19 14:07:03;;;;;;;5.83;2.07;;;;;;;;;;5014397;28;20033;-70
2023/06/19 14:09:31;;;;;;;6.55;2.40;;;;;;;;;;5018485;28;20127;-70
2023/06/19 14:12:02;;;;;;;5.43;1.88;;;;;;;;;;5023539;28;20094;-70
2023/06/19 14:14:29;;;;;;;6.57;2.00;;;;;;;;;;5027939;28;20045;-70
2023/06/19 14:16:58;;;;;;;6.40;1.75;;;;;;;;;;5013730;28;20476;-70
2023/06/19 14:19:28;;;;;;;5.83;2.13;;;;;;;;;;5021560;28;20510;-70
2023/06/19 14:21:58;;;;;;;6.75;2.00;;;;;;;;;;5030606;28;20663;-69
2023/06/19 14:24:27;;;;;;;5.85;2.17;;;;;;;;;;5020623;28;20045;-70
2023/06/19 14:26:55;;;;;;;5.22;1.90;;;;;;;;;;5013563;28;21318;-68
2023/06/19 14:29:23;;;;;;;5.18;1.92;;;;;;;;;;5010621;28;20041;-70
2023/06/19 14:31:51;;;;;;;6.50;2.13;;;;;;;;;;5019717;28;20048;-70
2023/06/19 14:34:19;;;;;;;5.70;1.85;;;;;;;;;;5026062;28;20041;-70
2023/06/19 14:36:47;;;;;;;5.72;1.90;;;;;;;;;;5012919;28;20510;-70
2023/06/19 14:39:15;;;;;;;5.85;1.92;;;;;;;;;;5017330;28;20045;-70
2023/06/19 14:41:44;;;;;;;5.82;2.35;;;;;;;;;;5001997;28;20045;-70